sensor_id;sensor_type;location;lat;lon;timestamp;P1;durP1;ratioP1;P2;durP2;ratioP2
69736;SDS011;64476;55.004;73.342;2023-02-01T00:00:49;51.43;;;17.30;;
69736;SDS011;64476;55.004;73.342;2023-02-01T00:03:51;43.15;;;17.95;;
69736;SDS011;64476;55.004;73.342;2023-02-01T00:06:52;38.63;;;19.02;;
69736;SDS011;64476;55.004;73.342;2023-02-01T00:09:54;38.88;;;18.00;;
69736;SDS011;64476;55.004;73.342;2023-02-01T00:12:55;68.25;;;29.40;;
69736;SDS011;64476;55.004;73.342;2023-02-01T00:16:09;65.45;;;29.25;;
69736;SDS011;64476;55.004;73.342;2023-02-01T00:19:13;63.65;;;25.90;;
69736;SDS011;64476;55.004;73.342;2023-02-01T00:22:26;43.20;;;22.33;;
69736;SDS011;64476;55.004;73.342;2023-02-01T00:25:28;50.58;;;18.27;;
69736;SDS011;64476;55.004;73.342;2023-02-01T00:28:29;39.53;;;18.92;;
69736;SDS011;64476;55.004;73.342;2023-02-01T00:31:32;40.70;;;18.08;;
69736;SDS011;64476;55.004;73.342;2023-02-01T00:34:34;50.92;;;19.48;;
69736;SDS011;64476;55.004;73.342;2023-02-01T00:37:35;49.80;;;19.75;;
69736;SDS011;64476;55.004;73.342;2023-02-01T00:40:37;43.20;;;18.95;;
69736;SDS011;64476;55.004;73.342;2023-02-01T00:43:43;37.08;;;17.30;;
69736;SDS011;64476;55.004;73.342;2023-02-01T00:46:45;38.20;;;15.52;;
69736;SDS011;64476;55.004;73.342;2023-02-01T00:49:47;42.40;;;17.38;;
69736;SDS011;64476;55.004;73.342;2023-02-01T00:52:49;35.50;;;17.40;;
69736;SDS011;64476;55.004;73.342;2023-02-01T00:56:02;37.73;;;16.90;;
69736;SDS011;64476;55.004;73.342;2023-02-01T00:59:06;43.63;;;18.73;;
69736;SDS011;64476;55.004;73.342;2023-02-01T01:02:09;45.67;;;17.98;;
69736;SDS011;64476;55.004;73.342;2023-02-01T01:05:20;43.83;;;18.25;;
69736;SDS011;64476;55.004;73.342;2023-02-01T01:08:21;43.53;;;19.77;;
69736;SDS011;64476;55.004;73.342;2023-02-01T01:14:28;42.97;;;20.13;;
69736;SDS011;64476;55.004;73.342;2023-02-01T01:17:33;50.58;;;20.88;;
69736;SDS011;64476;55.004;73.342;2023-02-01T01:21:07;39.28;;;19.05;;
69736;SDS011;64476;55.004;73.342;2023-02-01T01:24:10;42.97;;;18.80;;
69736;SDS011;64476;55.004;73.342;2023-02-01T01:27:19;54.38;;;22.38;;
69736;SDS011;64476;55.004;73.342;2023-02-01T01:30:29;50.53;;;21.03;;
69736;SDS011;64476;55.004;73.342;2023-02-01T01:33:31;58.83;;;22.75;;
69736;SDS011;64476;55.004;73.342;2023-02-01T01:36:32;49.70;;;22.65;;
69736;SDS011;64476;55.004;73.342;2023-02-01T01:39:44;53.22;;;23.08;;
69736;SDS011;64476;55.004;73.342;2023-02-01T01:42:46;52.90;;;23.70;;
69736;SDS011;64476;55.004;73.342;2023-02-01T01:45:48;63.38;;;25.70;;
69736;SDS011;64476;55.004;73.342;2023-02-01T01:52:17;68.80;;;24.67;;
69736;SDS011;64476;55.004;73.342;2023-02-01T01:55:26;77.57;;;27.90;;
69736;SDS011;64476;55.004;73.342;2023-02-01T01:58:41;80.63;;;27.88;;
69736;SDS011;64476;55.004;73.342;2023-02-01T02:05:31;79.95;;;34.55;;
69736;SDS011;64476;55.004;73.342;2023-02-01T02:08:33;94.30;;;31.75;;
69736;SDS011;64476;55.004;73.342;2023-02-01T02:11:35;78.38;;;30.55;;
69736;SDS011;64476;55.004;73.342;2023-02-01T02:14:41;87.95;;;32.38;;
69736;SDS011;64476;55.004;73.342;2023-02-01T02:27:30;73.68;;;31.33;;
69736;SDS011;64476;55.004;73.342;2023-02-01T02:47:18;85.05;;;31.20;;
69736;SDS011;64476;55.004;73.342;2023-02-01T02:54:15;75.28;;;27.73;;
69736;SDS011;64476;55.004;73.342;2023-02-01T02:58:15;90.60;;;28.55;;
69736;SDS011;64476;55.004;73.342;2023-02-01T03:01:23;63.85;;;24.70;;
69736;SDS011;64476;55.004;73.342;2023-02-01T03:04:57;51.70;;;21.48;;
69736;SDS011;64476;55.004;73.342;2023-02-01T03:08:15;55.05;;;24.73;;
69736;SDS011;64476;55.004;73.342;2023-02-01T03:11:17;76.07;;;28.17;;
69736;SDS011;64476;55.004;73.342;2023-02-01T03:14:19;72.82;;;28.50;;
69736;SDS011;64476;55.004;73.342;2023-02-01T03:17:35;82.10;;;30.58;;
69736;SDS011;64476;55.004;73.342;2023-02-01T03:20:49;84.72;;;30.73;;
69736;SDS011;64476;55.004;73.342;2023-02-01T03:27:43;77.30;;;28.17;;
69736;SDS011;64476;55.004;73.342;2023-02-01T03:30:49;77.30;;;31.08;;
69736;SDS011;64476;55.004;73.342;2023-02-01T03:33:51;74.72;;;28.55;;
69736;SDS011;64476;55.004;73.342;2023-02-01T03:37:15;89.45;;;27.52;;
69736;SDS011;64476;55.004;73.342;2023-02-01T03:40:33;66.88;;;26.80;;
69736;SDS011;64476;55.004;73.342;2023-02-01T03:43:56;74.15;;;28.77;;
69736;SDS011;64476;55.004;73.342;2023-02-01T03:47:09;92.70;;;33.60;;
69736;SDS011;64476;55.004;73.342;2023-02-01T03:50:21;94.78;;;35.97;;
69736;SDS011;64476;55.004;73.342;2023-02-01T03:53:27;96.30;;;39.30;;
69736;SDS011;64476;55.004;73.342;2023-02-01T03:56:30;84.68;;;33.85;;
69736;SDS011;64476;55.004;73.342;2023-02-01T03:59:41;89.80;;;34.53;;
69736;SDS011;64476;55.004;73.342;2023-02-01T04:02:45;75.55;;;32.83;;
69736;SDS011;64476;55.004;73.342;2023-02-01T04:05:51;96.57;;;34.97;;
69736;SDS011;64476;55.004;73.342;2023-02-01T04:09:01;98.50;;;33.60;;
69736;SDS011;64476;55.004;73.342;2023-02-01T04:12:03;70.07;;;30.90;;
69736;SDS011;64476;55.004;73.342;2023-02-01T04:15:20;78.68;;;31.92;;
69736;SDS011;64476;55.004;73.342;2023-02-01T04:18:21;77.22;;;31.65;;
69736;SDS011;64476;55.004;73.342;2023-02-01T04:21:23;91.50;;;34.17;;
69736;SDS011;64476;55.004;73.342;2023-02-01T04:24:33;86.97;;;33.42;;
69736;SDS011;64476;55.004;73.342;2023-02-01T04:27:36;187.70;;;98.32;;
69736;SDS011;64476;55.004;73.342;2023-02-01T04:30:41;79.63;;;29.88;;
69736;SDS011;64476;55.004;73.342;2023-02-01T04:33:43;65.53;;;27.92;;
69736;SDS011;64476;55.004;73.342;2023-02-01T04:40:20;65.50;;;29.80;;
69736;SDS011;64476;55.004;73.342;2023-02-01T04:43:21;69.00;;;28.85;;
69736;SDS011;64476;55.004;73.342;2023-02-01T04:46:23;75.38;;;30.45;;
69736;SDS011;64476;55.004;73.342;2023-02-01T04:49:34;71.05;;;30.58;;
69736;SDS011;64476;55.004;73.342;2023-02-01T04:52:36;75.50;;;29.33;;
69736;SDS011;64476;55.004;73.342;2023-02-01T04:55:38;63.47;;;28.67;;
69736;SDS011;64476;55.004;73.342;2023-02-01T04:58:45;80.80;;;29.48;;
69736;SDS011;64476;55.004;73.342;2023-02-01T05:01:57;56.08;;;26.50;;
69736;SDS011;64476;55.004;73.342;2023-02-01T05:04:58;54.22;;;25.13;;
69736;SDS011;64476;55.004;73.342;2023-02-01T05:08:00;50.75;;;23.20;;
69736;SDS011;64476;55.004;73.342;2023-02-01T05:11:12;55.75;;;23.00;;
69736;SDS011;64476;55.004;73.342;2023-02-01T05:15:02;59.00;;;23.73;;
69736;SDS011;64476;55.004;73.342;2023-02-01T05:18:04;58.03;;;22.73;;
69736;SDS011;64476;55.004;73.342;2023-02-01T05:21:06;61.22;;;25.58;;
69736;SDS011;64476;55.004;73.342;2023-02-01T05:24:22;54.83;;;25.65;;
69736;SDS011;64476;55.004;73.342;2023-02-01T05:27:33;64.43;;;26.90;;
69736;SDS011;64476;55.004;73.342;2023-02-01T05:30:35;67.72;;;29.75;;
69736;SDS011;64476;55.004;73.342;2023-02-01T05:33:37;69.68;;;28.42;;
69736;SDS011;64476;55.004;73.342;2023-02-01T05:36:38;84.70;;;28.95;;
69736;SDS011;64476;55.004;73.342;2023-02-01T05:39:51;82.30;;;32.28;;
69736;SDS011;64476;55.004;73.342;2023-02-01T05:42:53;80.50;;;32.03;;
69736;SDS011;64476;55.004;73.342;2023-02-01T05:45:54;74.57;;;31.05;;
69736;SDS011;64476;55.004;73.342;2023-02-01T05:48:56;95.70;;;30.88;;
69736;SDS011;64476;55.004;73.342;2023-02-01T05:52:02;85.40;;;33.75;;
69736;SDS011;64476;55.004;73.342;2023-02-01T05:55:04;77.25;;;31.35;;
69736;SDS011;64476;55.004;73.342;2023-02-01T05:58:06;81.03;;;30.42;;
69736;SDS011;64476;55.004;73.342;2023-02-01T06:01:12;66.57;;;29.55;;
69736;SDS011;64476;55.004;73.342;2023-02-01T06:04:53;72.20;;;29.05;;
69736;SDS011;64476;55.004;73.342;2023-02-01T06:07:54;72.25;;;28.95;;
69736;SDS011;64476;55.004;73.342;2023-02-01T06:11:03;63.20;;;26.77;;
69736;SDS011;64476;55.004;73.342;2023-02-01T06:14:05;61.65;;;26.10;;
69736;SDS011;64476;55.004;73.342;2023-02-01T06:17:08;55.58;;;24.75;;
69736;SDS011;64476;55.004;73.342;2023-02-01T06:20:20;54.37;;;24.67;;
69736;SDS011;64476;55.004;73.342;2023-02-01T06:23:30;55.10;;;25.70;;
69736;SDS011;64476;55.004;73.342;2023-02-01T06:26:35;55.83;;;24.92;;
69736;SDS011;64476;55.004;73.342;2023-02-01T06:29:37;66.05;;;23.95;;
69736;SDS011;64476;55.004;73.342;2023-02-01T06:32:50;63.90;;;26.73;;
69736;SDS011;64476;55.004;73.342;2023-02-01T06:36:26;58.13;;;27.33;;
69736;SDS011;64476;55.004;73.342;2023-02-01T06:39:28;60.50;;;27.83;;
69736;SDS011;64476;55.004;73.342;2023-02-01T06:46:05;65.97;;;29.03;;
69736;SDS011;64476;55.004;73.342;2023-02-01T06:49:40;64.47;;;28.35;;
69736;SDS011;64476;55.004;73.342;2023-02-01T06:52:55;58.72;;;25.98;;
69736;SDS011;64476;55.004;73.342;2023-02-01T06:55:57;51.67;;;26.27;;
69736;SDS011;64476;55.004;73.342;2023-02-01T06:59:06;57.50;;;26.90;;
69736;SDS011;64476;55.004;73.342;2023-02-01T07:02:13;53.97;;;24.52;;
69736;SDS011;64476;55.004;73.342;2023-02-01T07:05:20;54.95;;;24.75;;
69736;SDS011;64476;55.004;73.342;2023-02-01T07:08:22;51.30;;;24.73;;
69736;SDS011;64476;55.004;73.342;2023-02-01T07:11:23;46.78;;;23.42;;
69736;SDS011;64476;55.004;73.342;2023-02-01T07:14:28;48.53;;;23.02;;
69736;SDS011;64476;55.004;73.342;2023-02-01T07:17:29;48.60;;;23.42;;
69736;SDS011;64476;55.004;73.342;2023-02-01T07:20:31;54.30;;;25.48;;
69736;SDS011;64476;55.004;73.342;2023-02-01T07:23:33;44.05;;;22.90;;
69736;SDS011;64476;55.004;73.342;2023-02-01T07:26:36;54.43;;;20.77;;
69736;SDS011;64476;55.004;73.342;2023-02-01T07:29:45;44.80;;;22.00;;
69736;SDS011;64476;55.004;73.342;2023-02-01T07:32:57;45.53;;;22.25;;
69736;SDS011;64476;55.004;73.342;2023-02-01T07:36:03;44.15;;;21.45;;
69736;SDS011;64476;55.004;73.342;2023-02-01T07:39:07;36.95;;;20.20;;
69736;SDS011;64476;55.004;73.342;2023-02-01T07:42:09;47.95;;;23.13;;
69736;SDS011;64476;55.004;73.342;2023-02-01T07:45:19;42.80;;;21.02;;
69736;SDS011;64476;55.004;73.342;2023-02-01T07:48:21;36.35;;;19.80;;
69736;SDS011;64476;55.004;73.342;2023-02-01T07:51:58;38.72;;;20.95;;
69736;SDS011;64476;55.004;73.342;2023-02-01T07:55:04;48.65;;;23.15;;
69736;SDS011;64476;55.004;73.342;2023-02-01T07:58:07;42.97;;;21.58;;
69736;SDS011;64476;55.004;73.342;2023-02-01T08:01:16;43.83;;;21.77;;
69736;SDS011;64476;55.004;73.342;2023-02-01T08:04:21;41.95;;;21.77;;
69736;SDS011;64476;55.004;73.342;2023-02-01T08:10:57;50.83;;;24.75;;
69736;SDS011;64476;55.004;73.342;2023-02-01T08:14:00;52.92;;;26.38;;
69736;SDS011;64476;55.004;73.342;2023-02-01T08:17:04;56.67;;;27.30;;
69736;SDS011;64476;55.004;73.342;2023-02-01T08:20:06;60.53;;;28.52;;
69736;SDS011;64476;55.004;73.342;2023-02-01T08:23:08;78.15;;;30.80;;
69736;SDS011;64476;55.004;73.342;2023-02-01T08:29:51;76.38;;;33.03;;
69736;SDS011;64476;55.004;73.342;2023-02-01T08:32:52;80.25;;;34.63;;
69736;SDS011;64476;55.004;73.342;2023-02-01T08:36:39;81.25;;;33.28;;
69736;SDS011;64476;55.004;73.342;2023-02-01T08:39:41;62.42;;;31.42;;
69736;SDS011;64476;55.004;73.342;2023-02-01T08:42:55;69.73;;;33.40;;
69736;SDS011;64476;55.004;73.342;2023-02-01T08:46:04;59.80;;;29.40;;
69736;SDS011;64476;55.004;73.342;2023-02-01T08:49:06;68.25;;;30.80;;
69736;SDS011;64476;55.004;73.342;2023-02-01T08:52:08;72.10;;;31.95;;
69736;SDS011;64476;55.004;73.342;2023-02-01T08:55:19;72.97;;;31.89;;
69736;SDS011;64476;55.004;73.342;2023-02-01T08:58:32;76.97;;;31.02;;
69736;SDS011;64476;55.004;73.342;2023-02-01T09:01:33;68.53;;;34.08;;
69736;SDS011;64476;55.004;73.342;2023-02-01T09:08:54;72.60;;;33.53;;
69736;SDS011;64476;55.004;73.342;2023-02-01T09:11:56;61.65;;;30.83;;
69736;SDS011;64476;55.004;73.342;2023-02-01T09:15:29;74.37;;;37.27;;
69736;SDS011;64476;55.004;73.342;2023-02-01T09:18:30;67.55;;;34.33;;
69736;SDS011;64476;55.004;73.342;2023-02-01T09:21:42;71.90;;;33.50;;
69736;SDS011;64476;55.004;73.342;2023-02-01T09:24:44;71.32;;;32.45;;
69736;SDS011;64476;55.004;73.342;2023-02-01T09:27:46;81.32;;;37.60;;
69736;SDS011;64476;55.004;73.342;2023-02-01T09:30:49;82.95;;;34.42;;
69736;SDS011;64476;55.004;73.342;2023-02-01T09:33:56;72.03;;;33.78;;
69736;SDS011;64476;55.004;73.342;2023-02-01T09:36:58;63.67;;;33.13;;
69736;SDS011;64476;55.004;73.342;2023-02-01T09:40:00;71.82;;;32.88;;
69736;SDS011;64476;55.004;73.342;2023-02-01T09:46:38;82.97;;;35.95;;
69736;SDS011;64476;55.004;73.342;2023-02-01T09:53:12;93.13;;;46.45;;
69736;SDS011;64476;55.004;73.342;2023-02-01T09:56:55;69.30;;;37.45;;
69736;SDS011;64476;55.004;73.342;2023-02-01T10:00:07;88.15;;;38.42;;
69736;SDS011;64476;55.004;73.342;2023-02-01T10:03:19;76.40;;;36.75;;
69736;SDS011;64476;55.004;73.342;2023-02-01T10:27:14;86.55;;;31.88;;
69736;SDS011;64476;55.004;73.342;2023-02-01T10:30:23;81.97;;;32.97;;
69736;SDS011;64476;55.004;73.342;2023-02-01T10:40:29;74.45;;;36.50;;
69736;SDS011;64476;55.004;73.342;2023-02-01T10:43:32;86.65;;;34.97;;
69736;SDS011;64476;55.004;73.342;2023-02-01T10:46:34;135.68;;;42.95;;
69736;SDS011;64476;55.004;73.342;2023-02-01T10:49:43;79.85;;;36.55;;
69736;SDS011;64476;55.004;73.342;2023-02-01T10:53:04;80.03;;;34.88;;
69736;SDS011;64476;55.004;73.342;2023-02-01T10:56:18;85.97;;;35.33;;
69736;SDS011;64476;55.004;73.342;2023-02-01T10:59:25;83.43;;;34.05;;
69736;SDS011;64476;55.004;73.342;2023-02-01T11:02:59;80.60;;;30.93;;
69736;SDS011;64476;55.004;73.342;2023-02-01T11:06:01;72.05;;;31.13;;
69736;SDS011;64476;55.004;73.342;2023-02-01T11:09:35;54.05;;;26.27;;
69736;SDS011;64476;55.004;73.342;2023-02-01T11:12:40;53.10;;;26.00;;
69736;SDS011;64476;55.004;73.342;2023-02-01T11:15:43;54.20;;;25.08;;
69736;SDS011;64476;55.004;73.342;2023-02-01T11:18:56;60.08;;;26.42;;
69736;SDS011;64476;55.004;73.342;2023-02-01T11:22:00;54.40;;;26.40;;
69736;SDS011;64476;55.004;73.342;2023-02-01T11:25:07;54.75;;;26.67;;
69736;SDS011;64476;55.004;73.342;2023-02-01T11:28:11;66.50;;;29.75;;
69736;SDS011;64476;55.004;73.342;2023-02-01T11:31:18;68.25;;;27.90;;
69736;SDS011;64476;55.004;73.342;2023-02-01T11:35:02;65.57;;;29.20;;
69736;SDS011;64476;55.004;73.342;2023-02-01T11:45:26;70.28;;;29.98;;
69736;SDS011;64476;55.004;73.342;2023-02-01T11:48:31;60.78;;;29.05;;
69736;SDS011;64476;55.004;73.342;2023-02-01T11:51:44;63.40;;;29.60;;
69736;SDS011;64476;55.004;73.342;2023-02-01T11:55:12;62.67;;;29.33;;
69736;SDS011;64476;55.004;73.342;2023-02-01T12:02:20;71.25;;;30.80;;
69736;SDS011;64476;55.004;73.342;2023-02-01T12:09:29;65.00;;;28.55;;
69736;SDS011;64476;55.004;73.342;2023-02-01T12:13:10;80.13;;;33.92;;
69736;SDS011;64476;55.004;73.342;2023-02-01T12:19:36;66.43;;;31.77;;
69736;SDS011;64476;55.004;73.342;2023-02-01T12:27:40;73.82;;;30.40;;
69736;SDS011;64476;55.004;73.342;2023-02-01T12:44:04;74.15;;;33.60;;
69736;SDS011;64476;55.004;73.342;2023-02-01T12:47:21;71.63;;;33.38;;
69736;SDS011;64476;55.004;73.342;2023-02-01T12:50:42;90.60;;;33.97;;
69736;SDS011;64476;55.004;73.342;2023-02-01T12:57:26;70.70;;;35.88;;
69736;SDS011;64476;55.004;73.342;2023-02-01T13:00:40;78.13;;;33.88;;
69736;SDS011;64476;55.004;73.342;2023-02-01T13:03:50;72.07;;;30.88;;
69736;SDS011;64476;55.004;73.342;2023-02-01T13:07:51;70.70;;;31.38;;
69736;SDS011;64476;55.004;73.342;2023-02-01T13:11:00;76.00;;;32.17;;
69736;SDS011;64476;55.004;73.342;2023-02-01T13:17:32;61.07;;;28.47;;
69736;SDS011;64476;55.004;73.342;2023-02-01T13:20:38;62.53;;;28.55;;
69736;SDS011;64476;55.004;73.342;2023-02-01T13:23:54;70.30;;;32.38;;
69736;SDS011;64476;55.004;73.342;2023-02-01T13:30:37;65.40;;;30.95;;
69736;SDS011;64476;55.004;73.342;2023-02-01T13:40:41;91.05;;;36.42;;
69736;SDS011;64476;55.004;73.342;2023-02-01T13:43:50;86.57;;;36.95;;
69736;SDS011;64476;55.004;73.342;2023-02-01T13:47:27;106.00;;;38.97;;
69736;SDS011;64476;55.004;73.342;2023-02-01T13:50:35;78.18;;;34.03;;
69736;SDS011;64476;55.004;73.342;2023-02-01T13:53:51;99.85;;;36.67;;
69736;SDS011;64476;55.004;73.342;2023-02-01T13:56:53;104.50;;;39.20;;
69736;SDS011;64476;55.004;73.342;2023-02-01T14:03:57;104.43;;;45.28;;
69736;SDS011;64476;55.004;73.342;2023-02-01T14:07:00;106.28;;;42.78;;
69736;SDS011;64476;55.004;73.342;2023-02-01T14:13:49;115.03;;;51.45;;
69736;SDS011;64476;55.004;73.342;2023-02-01T14:30:19;99.55;;;44.55;;
69736;SDS011;64476;55.004;73.342;2023-02-01T14:33:22;116.00;;;46.88;;
69736;SDS011;64476;55.004;73.342;2023-02-01T14:36:42;118.20;;;44.30;;
69736;SDS011;64476;55.004;73.342;2023-02-01T14:43:11;113.55;;;40.50;;
69736;SDS011;64476;55.004;73.342;2023-02-01T14:46:19;102.03;;;43.60;;
69736;SDS011;64476;55.004;73.342;2023-02-01T14:49:20;115.70;;;41.97;;
69736;SDS011;64476;55.004;73.342;2023-02-01T14:52:36;94.63;;;40.50;;
69736;SDS011;64476;55.004;73.342;2023-02-01T14:59:20;119.80;;;40.08;;
69736;SDS011;64476;55.004;73.342;2023-02-01T15:02:34;106.68;;;41.50;;
69736;SDS011;64476;55.004;73.342;2023-02-01T15:05:44;90.45;;;40.05;;
69736;SDS011;64476;55.004;73.342;2023-02-01T15:08:46;99.63;;;44.13;;
69736;SDS011;64476;55.004;73.342;2023-02-01T15:15:21;113.63;;;46.67;;
69736;SDS011;64476;55.004;73.342;2023-02-01T15:18:29;83.13;;;39.28;;
69736;SDS011;64476;55.004;73.342;2023-02-01T15:21:31;93.47;;;40.92;;
69736;SDS011;64476;55.004;73.342;2023-02-01T15:24:42;91.18;;;36.88;;
69736;SDS011;64476;55.004;73.342;2023-02-01T15:27:54;94.63;;;38.90;;
69736;SDS011;64476;55.004;73.342;2023-02-01T15:31:04;98.85;;;41.55;;
69736;SDS011;64476;55.004;73.342;2023-02-01T15:34:06;95.47;;;39.17;;
69736;SDS011;64476;55.004;73.342;2023-02-01T15:37:11;102.10;;;41.60;;
69736;SDS011;64476;55.004;73.342;2023-02-01T15:40:20;93.65;;;39.67;;
69736;SDS011;64476;55.004;73.342;2023-02-01T15:47:53;101.60;;;40.23;;
69736;SDS011;64476;55.004;73.342;2023-02-01T15:50:56;83.57;;;37.20;;
69736;SDS011;64476;55.004;73.342;2023-02-01T15:54:02;80.38;;;33.80;;
69736;SDS011;64476;55.004;73.342;2023-02-01T15:57:10;85.45;;;34.63;;
69736;SDS011;64476;55.004;73.342;2023-02-01T16:00:29;85.90;;;33.45;;
69736;SDS011;64476;55.004;73.342;2023-02-01T16:03:44;90.80;;;34.20;;
69736;SDS011;64476;55.004;73.342;2023-02-01T16:06:59;99.82;;;36.67;;
69736;SDS011;64476;55.004;73.342;2023-02-01T16:10:27;73.18;;;32.78;;
69736;SDS011;64476;55.004;73.342;2023-02-01T16:13:35;93.60;;;35.60;;
69736;SDS011;64476;55.004;73.342;2023-02-01T16:16:37;99.25;;;42.00;;
69736;SDS011;64476;55.004;73.342;2023-02-01T16:19:38;100.78;;;40.33;;
69736;SDS011;64476;55.004;73.342;2023-02-01T16:22:48;93.55;;;39.72;;
69736;SDS011;64476;55.004;73.342;2023-02-01T16:25:55;85.75;;;38.17;;
69736;SDS011;64476;55.004;73.342;2023-02-01T16:28:58;94.45;;;37.08;;
69736;SDS011;64476;55.004;73.342;2023-02-01T16:32:04;87.45;;;37.10;;
69736;SDS011;64476;55.004;73.342;2023-02-01T16:35:21;91.89;;;37.34;;
69736;SDS011;64476;55.004;73.342;2023-02-01T16:38:26;94.53;;;37.97;;
69736;SDS011;64476;55.004;73.342;2023-02-01T16:41:37;96.68;;;38.42;;
69736;SDS011;64476;55.004;73.342;2023-02-01T16:44:40;102.30;;;41.00;;
69736;SDS011;64476;55.004;73.342;2023-02-01T16:47:44;82.38;;;35.47;;
69736;SDS011;64476;55.004;73.342;2023-02-01T16:54:00;96.85;;;42.80;;
69736;SDS011;64476;55.004;73.342;2023-02-01T16:57:02;110.72;;;40.17;;
69736;SDS011;64476;55.004;73.342;2023-02-01T17:00:05;101.53;;;38.65;;
69736;SDS011;64476;55.004;73.342;2023-02-01T17:03:09;85.40;;;35.67;;
69736;SDS011;64476;55.004;73.342;2023-02-01T17:06:26;108.60;;;43.42;;
69736;SDS011;64476;55.004;73.342;2023-02-01T17:09:29;90.43;;;39.78;;
69736;SDS011;64476;55.004;73.342;2023-02-01T17:12:31;125.13;;;51.70;;
69736;SDS011;64476;55.004;73.342;2023-02-01T17:15:33;141.57;;;54.20;;
69736;SDS011;64476;55.004;73.342;2023-02-01T17:18:53;117.45;;;46.47;;
69736;SDS011;64476;55.004;73.342;2023-02-01T17:21:57;86.97;;;36.55;;
69736;SDS011;64476;55.004;73.342;2023-02-01T17:24:59;87.40;;;38.53;;
69736;SDS011;64476;55.004;73.342;2023-02-01T17:28:01;92.07;;;40.17;;
69736;SDS011;64476;55.004;73.342;2023-02-01T17:31:13;82.93;;;35.90;;
69736;SDS011;64476;55.004;73.342;2023-02-01T17:34:16;82.72;;;37.25;;
69736;SDS011;64476;55.004;73.342;2023-02-01T17:37:24;77.35;;;35.08;;
69736;SDS011;64476;55.004;73.342;2023-02-01T17:40:40;83.93;;;36.58;;
69736;SDS011;64476;55.004;73.342;2023-02-01T17:43:41;93.68;;;37.75;;
69736;SDS011;64476;55.004;73.342;2023-02-01T17:46:53;81.28;;;34.35;;
69736;SDS011;64476;55.004;73.342;2023-02-01T17:53:31;71.88;;;33.35;;
69736;SDS011;64476;55.004;73.342;2023-02-01T17:56:38;80.88;;;34.70;;
69736;SDS011;64476;55.004;73.342;2023-02-01T17:59:39;66.45;;;30.88;;
69736;SDS011;64476;55.004;73.342;2023-02-01T18:02:46;85.57;;;37.72;;
69736;SDS011;64476;55.004;73.342;2023-02-01T18:05:48;95.03;;;34.28;;
69736;SDS011;64476;55.004;73.342;2023-02-01T18:09:02;96.60;;;34.03;;
69736;SDS011;64476;55.004;73.342;2023-02-01T18:12:04;88.30;;;34.17;;
69736;SDS011;64476;55.004;73.342;2023-02-01T18:15:29;76.28;;;33.20;;
69736;SDS011;64476;55.004;73.342;2023-02-01T18:18:36;81.88;;;32.03;;
69736;SDS011;64476;55.004;73.342;2023-02-01T18:21:39;74.45;;;30.23;;
69736;SDS011;64476;55.004;73.342;2023-02-01T18:24:52;64.07;;;29.60;;
69736;SDS011;64476;55.004;73.342;2023-02-01T18:27:54;61.85;;;29.45;;
69736;SDS011;64476;55.004;73.342;2023-02-01T18:30:57;67.90;;;28.88;;
69736;SDS011;64476;55.004;73.342;2023-02-01T18:33:59;63.30;;;27.88;;
69736;SDS011;64476;55.004;73.342;2023-02-01T18:37:01;68.97;;;28.20;;
69736;SDS011;64476;55.004;73.342;2023-02-01T18:40:03;66.47;;;26.35;;
69736;SDS011;64476;55.004;73.342;2023-02-01T18:43:14;66.40;;;28.00;;
69736;SDS011;64476;55.004;73.342;2023-02-01T18:46:16;71.07;;;26.27;;
69736;SDS011;64476;55.004;73.342;2023-02-01T18:49:18;73.13;;;31.58;;
69736;SDS011;64476;55.004;73.342;2023-02-01T18:52:25;74.90;;;33.35;;
69736;SDS011;64476;55.004;73.342;2023-02-01T18:55:27;67.07;;;30.27;;
69736;SDS011;64476;55.004;73.342;2023-02-01T18:58:32;92.47;;;32.15;;
69736;SDS011;64476;55.004;73.342;2023-02-01T19:01:35;78.03;;;35.50;;
69736;SDS011;64476;55.004;73.342;2023-02-01T19:04:37;77.50;;;31.88;;
69736;SDS011;64476;55.004;73.342;2023-02-01T19:07:43;71.32;;;29.90;;
69736;SDS011;64476;55.004;73.342;2023-02-01T19:10:50;67.78;;;28.55;;
69736;SDS011;64476;55.004;73.342;2023-02-01T19:13:58;62.17;;;26.83;;
69736;SDS011;64476;55.004;73.342;2023-02-01T19:17:01;47.95;;;23.88;;
69736;SDS011;64476;55.004;73.342;2023-02-01T19:20:08;49.03;;;23.05;;
69736;SDS011;64476;55.004;73.342;2023-02-01T19:23:12;42.60;;;20.90;;
69736;SDS011;64476;55.004;73.342;2023-02-01T19:26:19;51.47;;;22.13;;
69736;SDS011;64476;55.004;73.342;2023-02-01T19:29:21;62.55;;;21.27;;
69736;SDS011;64476;55.004;73.342;2023-02-01T19:32:27;47.17;;;22.13;;
69736;SDS011;64476;55.004;73.342;2023-02-01T19:35:40;59.75;;;22.08;;
69736;SDS011;64476;55.004;73.342;2023-02-01T19:38:47;53.20;;;24.35;;
69736;SDS011;64476;55.004;73.342;2023-02-01T19:41:48;54.72;;;24.20;;
69736;SDS011;64476;55.004;73.342;2023-02-01T19:44:56;61.70;;;24.25;;
69736;SDS011;64476;55.004;73.342;2023-02-01T19:48:02;47.17;;;23.38;;
69736;SDS011;64476;55.004;73.342;2023-02-01T19:51:15;69.13;;;24.27;;
69736;SDS011;64476;55.004;73.342;2023-02-01T19:54:17;55.67;;;25.23;;
69736;SDS011;64476;55.004;73.342;2023-02-01T19:57:20;55.43;;;23.77;;
69736;SDS011;64476;55.004;73.342;2023-02-01T20:00:25;67.03;;;26.53;;
69736;SDS011;64476;55.004;73.342;2023-02-01T20:03:26;58.85;;;25.95;;
69736;SDS011;64476;55.004;73.342;2023-02-01T20:06:39;57.83;;;24.70;;
69736;SDS011;64476;55.004;73.342;2023-02-01T20:09:49;50.08;;;21.92;;
69736;SDS011;64476;55.004;73.342;2023-02-01T20:12:51;72.57;;;24.67;;
69736;SDS011;64476;55.004;73.342;2023-02-01T20:15:56;59.70;;;23.75;;
69736;SDS011;64476;55.004;73.342;2023-02-01T20:19:00;61.30;;;24.15;;
69736;SDS011;64476;55.004;73.342;2023-02-01T20:22:01;50.10;;;24.42;;
69736;SDS011;64476;55.004;73.342;2023-02-01T20:25:03;48.78;;;22.30;;
69736;SDS011;64476;55.004;73.342;2023-02-01T20:28:16;55.10;;;22.60;;
69736;SDS011;64476;55.004;73.342;2023-02-01T20:31:18;59.53;;;23.33;;
69736;SDS011;64476;55.004;73.342;2023-02-01T20:34:20;60.22;;;23.42;;
69736;SDS011;64476;55.004;73.342;2023-02-01T20:37:22;52.45;;;25.65;;
69736;SDS011;64476;55.004;73.342;2023-02-01T20:44:18;65.45;;;27.10;;
69736;SDS011;64476;55.004;73.342;2023-02-01T20:47:55;77.10;;;28.38;;
69736;SDS011;64476;55.004;73.342;2023-02-01T20:50:57;57.28;;;28.05;;
69736;SDS011;64476;55.004;73.342;2023-02-01T20:53:59;55.92;;;26.15;;
69736;SDS011;64476;55.004;73.342;2023-02-01T20:57:04;62.63;;;24.15;;
69736;SDS011;64476;55.004;73.342;2023-02-01T21:00:19;50.65;;;23.17;;
69736;SDS011;64476;55.004;73.342;2023-02-01T21:03:24;58.75;;;25.63;;
69736;SDS011;64476;55.004;73.342;2023-02-01T21:06:26;65.40;;;25.92;;
69736;SDS011;64476;55.004;73.342;2023-02-01T21:09:28;64.65;;;25.58;;
69736;SDS011;64476;55.004;73.342;2023-02-01T21:12:30;65.10;;;26.65;;
69736;SDS011;64476;55.004;73.342;2023-02-01T21:15:31;55.67;;;24.98;;
69736;SDS011;64476;55.004;73.342;2023-02-01T21:18:50;59.60;;;25.20;;
69736;SDS011;64476;55.004;73.342;2023-02-01T21:21:53;58.95;;;25.88;;